createdAt,value
2022-10-22T00:10:19.471Z,100.00
2022-10-22T00:15:23.810Z,100.00
2022-10-22T00:20:26.521Z,100.00
2022-10-22T00:25:29.330Z,100.00
2022-10-22T00:30:33.499Z,100.00
2022-10-22T00:35:36.229Z,100.00
2022-10-22T00:40:38.921Z,100.00
2022-10-22T00:45:43.390Z,100.00
2022-10-22T00:50:49.194Z,100.00
2022-10-22T00:55:54.683Z,100.00
2022-10-22T01:00:59.277Z,100.00
2022-10-22T01:06:06.044Z,100.00
2022-10-22T01:11:16.589Z,100.00
2022-10-22T01:16:27.528Z,100.00
2022-10-22T01:21:35.470Z,100.00
2022-10-22T01:26:51.058Z,100.00
2022-10-22T01:32:00.254Z,100.00
2022-10-22T01:37:04.555Z,100.00
2022-10-22T01:42:07.719Z,100.00
2022-10-22T01:47:22.696Z,100.00
2022-10-22T01:52:35.549Z,100.00
2022-10-22T01:57:45.265Z,100.00
2022-10-22T02:03:01.371Z,100.00
2022-10-22T02:08:09.218Z,100.00
2022-10-22T02:13:17.175Z,100.00
2022-10-22T02:18:25.150Z,100.00
2022-10-22T02:23:28.675Z,100.00
2022-10-22T02:28:38.266Z,100.00
2022-10-22T02:33:46.431Z,100.00
2022-10-22T02:38:52.399Z,100.00
2022-10-22T02:43:56.611Z,100.00
2022-10-22T02:49:00.682Z,100.00
2022-10-22T02:54:03.443Z,100.00
2022-10-22T02:59:06.603Z,100.00
2022-10-22T03:04:11.618Z,100.00
2022-10-22T03:09:14.539Z,100.00
2022-10-22T03:14:17.757Z,100.00
2022-10-22T03:19:21.979Z,100.00
2022-10-22T03:24:30.037Z,100.00
2022-10-22T03:29:36.231Z,100.00
2022-10-22T03:34:40.396Z,100.00
2022-10-22T03:39:43.287Z,100.00
2022-10-22T03:44:46.032Z,100.00
2022-10-22T03:49:50.174Z,100.00
2022-10-22T03:54:53.663Z,100.00
2022-10-22T03:59:56.664Z,100.00
2022-10-22T04:05:00.998Z,100.00
2022-10-22T04:10:04.301Z,100.00
2022-10-22T04:15:08.253Z,100.00
2022-10-22T04:20:12.803Z,100.00
2022-10-22T04:25:15.528Z,100.00
2022-10-22T04:30:18.295Z,100.00
2022-10-22T04:35:22.485Z,100.00
2022-10-22T04:40:25.320Z,100.00
2022-10-22T04:45:28.051Z,100.00
2022-10-22T04:50:32.711Z,100.00
2022-10-22T04:55:35.465Z,100.00
2022-10-22T05:00:38.249Z,100.00
2022-10-22T05:05:42.341Z,100.00
2022-10-22T05:10:45.207Z,100.00
2022-10-22T05:15:48.290Z,100.00
2022-10-22T05:20:52.491Z,100.00
2022-10-22T05:25:55.182Z,100.00
2022-10-22T05:30:59.566Z,100.00
2022-10-22T05:36:05.510Z,100.00
2022-10-22T05:41:11.133Z,100.00
2022-10-22T05:46:21.278Z,100.00
2022-10-22T05:51:27.713Z,100.00
2022-10-22T05:56:32.534Z,100.00
2022-10-22T06:01:36.292Z,100.00
2022-10-22T06:06:43.792Z,100.00
2022-10-22T06:11:47.709Z,100.00
2022-10-22T06:16:51.269Z,100.00
2022-10-22T06:21:55.337Z,100.00
2022-10-22T06:26:58.377Z,100.00
2022-10-22T06:32:01.087Z,100.00
2022-10-22T06:37:05.227Z,100.00
2022-10-22T06:42:08.217Z,100.00
2022-10-22T06:47:11.018Z,100.00
2022-10-22T06:52:15.751Z,100.00
2022-10-22T06:57:18.537Z,100.00
2022-10-22T07:02:21.527Z,100.00
2022-10-22T07:07:25.795Z,100.00
2022-10-22T07:12:29.438Z,100.00
2022-10-22T07:17:32.158Z,100.00
2022-10-22T07:22:36.845Z,100.00
2022-10-22T07:27:39.841Z,100.00
2022-10-22T07:32:42.793Z,100.00
2022-10-22T07:37:46.995Z,100.00
2022-10-22T07:42:49.749Z,100.00
2022-10-22T07:47:53.869Z,100.00
2022-10-22T07:52:58.474Z,100.00
2022-10-22T07:58:01.523Z,100.00
2022-10-22T08:03:04.461Z,100.00
2022-10-22T08:08:08.607Z,100.00
2022-10-22T08:13:12.317Z,100.00
2022-10-22T08:18:15.428Z,100.00
2022-10-22T08:23:22.079Z,100.00
2022-10-22T08:28:29.934Z,100.00
2022-10-22T08:33:32.893Z,100.00
2022-10-22T08:38:37.050Z,100.00
2022-10-22T08:44:15.317Z,100.00
2022-10-22T08:49:21.875Z,100.00
2022-10-22T08:54:34.516Z,100.00
2022-10-22T08:59:45.549Z,100.00
2022-10-22T09:04:55.775Z,100.00
2022-10-22T09:10:01.540Z,100.00
2022-10-22T09:15:05.065Z,100.00
2022-10-22T09:20:15.857Z,100.00
2022-10-22T09:25:23.881Z,100.00
2022-10-22T09:30:28.520Z,100.00
2022-10-22T09:35:35.646Z,100.00
2022-10-22T09:40:47.549Z,100.00
2022-10-22T09:45:57.955Z,100.00
2022-10-22T09:51:07.215Z,100.00
2022-10-22T09:56:19.955Z,100.00
2022-10-22T10:01:25.935Z,100.00
2022-10-22T10:06:34.328Z,100.00
2022-10-22T10:11:44.467Z,100.00
2022-10-22T10:16:59.001Z,100.00
2022-10-22T10:22:12.046Z,100.00
2022-10-22T10:27:23.981Z,100.00
2022-10-22T10:32:41.912Z,100.00
2022-10-22T10:37:51.198Z,100.00
2022-10-22T10:43:01.245Z,100.00
2022-10-22T10:48:34.141Z,100.00
2022-10-22T10:53:53.340Z,100.00
2022-10-22T10:59:08.372Z,100.00
2022-10-22T11:04:27.722Z,100.00
2022-10-22T11:09:37.558Z,100.00
2022-10-22T11:14:52.026Z,100.00
2022-10-22T11:20:01.848Z,100.00
2022-10-22T11:25:15.199Z,100.00
2022-10-22T11:30:21.680Z,100.00
2022-10-22T11:35:28.073Z,100.00
2022-10-22T11:40:35.944Z,100.00
2022-10-22T11:45:43.055Z,100.00
2022-10-22T11:50:50.799Z,100.00
2022-10-22T11:55:58.062Z,99.02
2022-10-22T12:06:29.755Z,93.29
2022-10-22T12:11:39.429Z,93.22
2022-10-22T12:17:01.719Z,92.41
2022-10-22T12:22:17.957Z,93.55
2022-10-22T12:27:23.187Z,97.16
2022-10-22T12:32:35.163Z,99.68
2022-10-22T12:37:40.108Z,100.00
2022-10-22T12:42:48.990Z,100.00
2022-10-22T12:47:56.580Z,100.00
2022-10-22T12:53:01.169Z,100.00
2022-10-22T12:58:07.236Z,100.00
2022-10-22T13:03:26.552Z,97.61
2022-10-22T13:08:35.552Z,98.08
2022-10-22T13:13:45.635Z,95.94
2022-10-22T13:18:50.583Z,99.67
2022-10-22T13:23:57.797Z,100.00
2022-10-22T13:29:02.183Z,100.00
2022-10-22T13:34:11.710Z,100.00
2022-10-22T13:39:19.857Z,100.00
2022-10-22T13:44:22.595Z,100.00
2022-10-22T13:49:25.337Z,100.00
2022-10-22T13:54:30.217Z,99.92
2022-10-22T13:59:32.920Z,97.41
2022-10-22T14:04:40.621Z,98.26
2022-10-22T14:09:45.087Z,99.76
2022-10-22T14:14:47.850Z,100.00
2022-10-22T14:19:50.725Z,100.00
2022-10-22T14:24:55.255Z,100.00
2022-10-22T14:29:59.596Z,100.00
2022-10-22T14:35:02.666Z,100.00
2022-10-22T14:40:11.987Z,100.00
2022-10-22T14:45:18.461Z,100.00
2022-10-22T14:50:21.309Z,99.90
2022-10-22T14:55:27.128Z,99.84
2022-10-22T15:00:29.899Z,100.00
2022-10-22T15:05:32.631Z,100.00
2022-10-22T15:10:36.768Z,100.00
2022-10-22T15:15:41.260Z,100.00
2022-10-22T15:20:44.058Z,100.00
2022-10-22T15:25:48.119Z,100.00
2022-10-22T15:30:59.340Z,100.00
2022-10-22T15:36:10.934Z,100.00
2022-10-22T15:41:15.104Z,100.00
2022-10-22T15:46:19.453Z,100.00
2022-10-22T15:51:22.429Z,100.00
2022-10-22T15:56:28.221Z,100.00
2022-10-22T16:01:31.876Z,100.00
2022-10-22T16:06:36.520Z,100.00
2022-10-22T16:11:41.507Z,100.00
2022-10-22T16:16:46.481Z,100.00
2022-10-22T16:21:51.466Z,100.00
2022-10-22T16:26:55.784Z,100.00
2022-10-22T16:31:58.513Z,100.00
2022-10-22T16:37:01.246Z,100.00
2022-10-22T16:42:05.442Z,100.00
2022-10-22T16:47:08.147Z,100.00
2022-10-22T16:52:11.095Z,100.00
2022-10-22T16:57:15.195Z,100.00
2022-10-22T17:02:17.890Z,100.00
2022-10-22T17:07:23.659Z,100.00
2022-10-22T17:12:27.798Z,100.00
2022-10-22T17:17:30.525Z,100.00
2022-10-22T17:22:33.775Z,100.00
2022-10-22T17:27:38.992Z,100.00
2022-10-22T17:32:41.920Z,100.00
2022-10-22T17:37:44.869Z,100.00
2022-10-22T17:42:49.430Z,100.00
2022-10-22T17:47:52.981Z,100.00
2022-10-22T17:52:55.689Z,100.00
2022-10-22T17:57:59.822Z,100.00
2022-10-22T18:03:02.539Z,100.00
2022-10-22T18:08:07.780Z,100.00
2022-10-22T18:13:13.963Z,100.00
2022-10-22T18:23:45.048Z,100.00
2022-10-22T18:28:49.893Z,100.00
2022-10-22T18:38:58.390Z,100.00
2022-10-22T18:44:04.911Z,100.00
2022-10-22T18:49:08.029Z,100.00
2022-10-22T18:54:22.542Z,100.00
2022-10-22T18:59:28.358Z,100.00
2022-10-22T19:04:36.544Z,100.00
2022-10-22T19:09:40.529Z,100.00
2022-10-22T19:15:11.218Z,100.00
2022-10-22T19:20:14.271Z,100.00
2022-10-22T19:25:17.135Z,100.00
2022-10-22T19:30:24.061Z,100.00
2022-10-22T19:35:27.160Z,100.00
2022-10-22T19:40:55.281Z,100.00
2022-10-22T19:45:59.475Z,100.00
2022-10-22T19:51:04.279Z,100.00
2022-10-22T19:56:09.658Z,100.00
2022-10-22T20:01:16.054Z,100.00
2022-10-22T20:11:46.505Z,100.00
2022-10-22T20:16:50.686Z,100.00
2022-10-22T20:21:53.491Z,100.00
2022-10-22T20:26:56.337Z,100.00
2022-10-22T20:32:02.316Z,100.00
2022-10-22T20:37:07.043Z,100.00
2022-10-22T20:42:09.967Z,100.00
2022-10-22T20:52:41.443Z,100.00
2022-10-22T20:57:44.489Z,100.00
2022-10-22T21:02:48.823Z,100.00
2022-10-22T21:07:51.531Z,100.00
2022-10-22T21:12:54.336Z,100.00
2022-10-22T21:17:58.465Z,100.00
2022-10-22T21:23:01.212Z,100.00
2022-10-22T21:28:04.027Z,100.00
2022-10-22T21:33:08.162Z,100.00
2022-10-22T21:38:11.010Z,100.00
2022-10-22T21:43:13.849Z,100.00
2022-10-22T21:48:18.042Z,100.00
2022-10-22T21:53:20.737Z,100.00
2022-10-22T21:58:24.018Z,100.00
2022-10-22T22:03:29.104Z,100.00
2022-10-22T22:08:33.579Z,100.00
2022-10-22T22:13:36.582Z,100.00
2022-10-22T22:18:42.043Z,100.00
2022-10-22T22:23:46.531Z,100.00
2022-10-22T22:28:49.395Z,100.00
2022-10-22T22:34:00.167Z,100.00
2022-10-22T22:39:04.654Z,100.00
2022-10-22T22:44:07.418Z,100.00
2022-10-22T22:49:11.590Z,100.00
2022-10-22T22:54:14.546Z,100.00
2022-10-22T22:59:17.263Z,100.00
2022-10-22T23:04:23.775Z,100.00
2022-10-22T23:09:26.711Z,100.00
2022-10-22T23:14:29.523Z,100.00
2022-10-22T23:19:33.621Z,100.00
2022-10-22T23:24:36.912Z,100.00
2022-10-22T23:29:44.391Z,100.00
2022-10-22T23:34:49.109Z,100.00
2022-10-22T23:39:51.812Z,100.00
2022-10-22T23:44:54.847Z,100.00
2022-10-22T23:49:58.943Z,100.00
2022-10-22T23:55:01.663Z,100.00
